createdAt,value
2023-07-28T00:03:18.521Z,100245.25
2023-07-28T00:08:20.228Z,100260.63
2023-07-28T00:13:26.684Z,100247.13
2023-07-28T00:18:31.018Z,100241.72
2023-07-28T00:23:32.853Z,100242.56
2023-07-28T00:28:39.214Z,100243.38
2023-07-28T00:33:43.399Z,100247.97
2023-07-28T00:38:45.169Z,100242.56
2023-07-28T00:43:52.031Z,100251.47
2023-07-28T00:48:56.053Z,100241.72
2023-07-28T00:54:01.165Z,100245.25
2023-07-28T00:59:02.927Z,100252.53
2023-07-28T01:04:04.905Z,100251.47
2023-07-28T01:09:15.004Z,100238.78
2023-07-28T01:14:19.057Z,100247.69
2023-07-28T01:19:23.500Z,100242.06
2023-07-28T01:24:46.203Z,100246.44
2023-07-28T01:29:52.607Z,100248.88
2023-07-28T01:34:56.903Z,100246.16
2023-07-28T01:39:58.721Z,100246.16
2023-07-28T01:45:00.599Z,100242.41
2023-07-28T01:50:02.668Z,100237.81
2023-07-28T01:55:07.639Z,100250.28
2023-07-28T02:00:09.784Z,100245.72
2023-07-28T02:05:17.459Z,100265.66
2023-07-28T02:10:26.966Z,100262.97
2023-07-28T02:15:31.042Z,100262.38
2023-07-28T02:20:34.683Z,100251.56
2023-07-28T02:25:36.671Z,100266.16
2023-07-28T02:30:38.579Z,100273.19
2023-07-28T02:35:44.463Z,100270.50
2023-07-28T02:40:48.294Z,100264.28
2023-07-28T02:45:54.880Z,100281.31
2023-07-28T02:50:56.719Z,100292.38
2023-07-28T02:55:58.524Z,100284.25
2023-07-28T03:01:02.555Z,100302.09
2023-07-28T03:06:09.998Z,100295.66
2023-07-28T03:11:15.947Z,100302.69
2023-07-28T03:16:17.807Z,100305.41
2023-07-28T03:21:19.591Z,100292.13
2023-07-28T03:26:21.347Z,100306.69
2023-07-28T03:31:23.330Z,100309.41
2023-07-28T03:36:27.606Z,100316.69
2023-07-28T03:41:36.312Z,100303.19
2023-07-28T03:46:40.397Z,100314.00
2023-07-28T03:51:42.128Z,100318.31
2023-07-28T03:56:46.500Z,100329.72
2023-07-28T04:01:50.530Z,100319.50
2023-07-28T04:06:53.825Z,100324.19
2023-07-28T04:11:58.029Z,100329.34
2023-07-28T04:16:59.976Z,100331.72
2023-07-28T04:22:04.044Z,100336.88
2023-07-28T04:27:08.327Z,100335.81
2023-07-28T04:32:12.743Z,100337.69
2023-07-28T04:37:23.198Z,100337.94
2023-07-28T04:42:32.264Z,100340.41
2023-07-28T04:47:34.080Z,100340.75
2023-07-28T04:52:35.857Z,100343.91
2023-07-28T04:58:04.710Z,100349.41
2023-07-28T05:03:21.029Z,100353.28
2023-07-28T05:08:31.934Z,100358.00
2023-07-28T05:13:33.880Z,100352.56
2023-07-28T05:18:35.717Z,100367.41
2023-07-28T05:24:09.797Z,100366.59
2023-07-28T05:29:12.371Z,100364.13
2023-07-28T05:34:14.535Z,100365.19
2023-07-28T05:39:16.370Z,100365.44
2023-07-28T05:44:23.856Z,100373.78
2023-07-28T05:49:25.811Z,100369.91
2023-07-28T05:54:30.158Z,100374.50
2023-07-28T05:59:33.994Z,100370.25
2023-07-28T06:04:35.755Z,100378.47
2023-07-28T06:09:39.995Z,100385.47
2023-07-28T06:14:44.588Z,100384.56
2023-07-28T06:19:47.455Z,100390.31
2023-07-28T06:24:49.696Z,100396.59
2023-07-28T06:29:51.412Z,100407.25
2023-07-28T06:34:55.781Z,100422.19
2023-07-28T06:39:59.738Z,100420.53
2023-07-28T06:45:04.751Z,100416.41
2023-07-28T06:50:07.082Z,100427.38
2023-07-28T06:55:09.564Z,100434.34
2023-07-28T07:00:11.988Z,100434.78
2023-07-28T07:05:16.420Z,100443.31
2023-07-28T07:10:21.773Z,100439.16
2023-07-28T07:15:23.589Z,100457.88
2023-07-28T07:20:27.766Z,100452.59
2023-07-28T07:25:30.105Z,100463.72
2023-07-28T07:30:34.692Z,100461.56
2023-07-28T07:35:38.921Z,100464.38
2023-07-28T07:40:40.693Z,100468.81
2023-07-28T07:45:48.179Z,100476.47
2023-07-28T07:50:54.520Z,100489.28
2023-07-28T07:55:58.767Z,100495.44
2023-07-28T08:01:03.209Z,100494.66
2023-07-28T08:06:05.225Z,100505.16
2023-07-28T08:11:07.334Z,100506.31
2023-07-28T08:16:12.236Z,100515.72
2023-07-28T08:21:16.256Z,100523.53
2023-07-28T08:26:17.942Z,100527.16
2023-07-28T08:31:22.044Z,100533.28
2023-07-28T08:36:26.110Z,100535.38
2023-07-28T08:41:27.986Z,100537.38
2023-07-28T08:46:29.972Z,100537.22
2023-07-28T08:51:31.825Z,100551.09
2023-07-28T08:56:33.588Z,100549.53
2023-07-28T09:01:41.073Z,100557.34
2023-07-28T09:06:49.805Z,100574.44
2023-07-28T09:11:57.729Z,100563.09
2023-07-28T09:17:14.669Z,100576.84
2023-07-28T09:22:19.387Z,100580.81
2023-07-28T09:27:30.209Z,100587.22
2023-07-28T09:32:38.155Z,100587.81
2023-07-28T09:37:42.717Z,100596.06
2023-07-28T09:42:57.405Z,100606.81
2023-07-28T09:48:03.437Z,100599.69
2023-07-28T09:53:05.541Z,100608.56
2023-07-28T09:58:11.327Z,100614.16
2023-07-28T10:03:15.813Z,100612.72
2023-07-28T10:08:23.632Z,100622.41
2023-07-28T10:13:28.237Z,100622.31
2023-07-28T10:18:37.863Z,100621.69
2023-07-28T10:23:40.125Z,100626.56
2023-07-28T10:28:44.785Z,100640.50
2023-07-28T10:33:46.778Z,100626.50
2023-07-28T10:39:01.260Z,100619.94
2023-07-28T10:44:03.446Z,100623.31
2023-07-28T10:49:08.917Z,100639.19
2023-07-28T10:54:10.683Z,100630.47
2023-07-28T10:59:17.540Z,100640.47
2023-07-28T11:04:21.371Z,100650.63
2023-07-28T11:09:24.841Z,100661.47
2023-07-28T11:14:26.867Z,100666.41
2023-07-28T11:19:28.908Z,100658.97
2023-07-28T11:24:33.424Z,100673.19
2023-07-28T11:29:37.511Z,100668.47
2023-07-28T11:34:44.706Z,100684.81
2023-07-28T11:39:49.414Z,100693.56
2023-07-28T11:44:56.019Z,100695.59
2023-07-28T11:50:01.477Z,100694.44
2023-07-28T11:55:07.534Z,100691.88
2023-07-28T12:00:10.168Z,100693.50
2023-07-28T12:05:21.637Z,100694.44
2023-07-28T12:20:47.829Z,100707.53
2023-07-28T12:25:56.746Z,100710.25
2023-07-28T12:31:00.264Z,100721.09
2023-07-28T12:36:24.429Z,100728.97
2023-07-28T12:46:45.011Z,100737.06
2023-07-28T12:57:11.586Z,100729.63
2023-07-28T13:02:13.684Z,100735.22
2023-07-28T13:17:27.458Z,100743.31
2023-07-28T13:22:29.300Z,100747.78
2023-07-28T13:27:33.636Z,100737.66
2023-07-28T13:32:38.102Z,100740.50
2023-07-28T13:37:40.712Z,100737.56
2023-07-28T13:42:44.825Z,100732.72
2023-07-28T13:47:49.580Z,100739.72
2023-07-28T13:52:52.536Z,100733.47
2023-07-28T13:57:57.902Z,100740.06
2023-07-28T14:03:00.641Z,100733.47
2023-07-28T14:08:03.259Z,100737.28
2023-07-28T14:13:05.908Z,100729.72
2023-07-28T14:18:10.597Z,100740.22
2023-07-28T14:23:31.704Z,100722.13
2023-07-28T14:28:33.607Z,100727.94
2023-07-28T14:33:37.712Z,100735.16
2023-07-28T14:38:42.176Z,100724.94
2023-07-28T14:43:43.936Z,100727.75
2023-07-28T14:48:45.628Z,100734.41
2023-07-28T14:53:49.759Z,100733.91
2023-07-28T14:58:54.396Z,100734.44
2023-07-28T15:04:00.328Z,100738.81
2023-07-28T15:09:08.477Z,100734.31
2023-07-28T15:14:10.484Z,100743.63
2023-07-28T15:19:12.293Z,100735.84
2023-07-28T15:24:16.637Z,100731.78
2023-07-28T15:29:19.921Z,100728.06
2023-07-28T15:34:24.452Z,100732.97
2023-07-28T15:39:32.315Z,100742.91
2023-07-28T15:44:36.465Z,100741.19
2023-07-28T15:49:38.895Z,100745.97
2023-07-28T15:54:40.759Z,100741.28
2023-07-28T15:59:49.092Z,100733.25
2023-07-28T16:04:53.450Z,100739.16
2023-07-28T16:09:56.504Z,100746.63
2023-07-28T16:14:58.295Z,100739.31
2023-07-28T16:20:00.158Z,100748.53
2023-07-28T16:25:04.232Z,100752.19
2023-07-28T16:30:07.471Z,100750.50
2023-07-28T16:35:09.246Z,100744.44
2023-07-28T16:40:16.102Z,100744.00
2023-07-28T16:45:17.845Z,100743.13
2023-07-28T16:50:21.981Z,100746.25
2023-07-28T16:55:31.442Z,100746.06
2023-07-28T17:00:33.221Z,100741.44
2023-07-28T17:05:37.281Z,100736.41
2023-07-28T17:10:43.778Z,100739.84
2023-07-28T17:15:46.775Z,100743.06
2023-07-28T17:20:48.633Z,100756.38
2023-07-28T17:25:52.483Z,100744.47
2023-07-28T17:30:54.545Z,100751.00
2023-07-28T17:36:02.244Z,100741.59
2023-07-28T17:41:04.128Z,100745.16
2023-07-28T17:46:06.126Z,100745.03
2023-07-28T17:51:11.282Z,100753.13
2023-07-28T17:56:13.153Z,100761.69
2023-07-28T18:01:17.395Z,100765.06
2023-07-28T18:06:21.518Z,100753.59
2023-07-28T18:11:23.257Z,100762.66
2023-07-28T18:16:30.061Z,100758.28
2023-07-28T18:21:36.814Z,100757.16
2023-07-28T18:26:41.244Z,100762.06
2023-07-28T18:31:43.134Z,100766.03
2023-07-28T18:36:53.508Z,100776.59
2023-07-28T18:41:59.822Z,100784.69
2023-07-28T18:47:03.916Z,100793.84
2023-07-28T18:52:05.912Z,100792.66
2023-07-28T18:57:07.894Z,100795.03
2023-07-28T19:02:11.853Z,100799.84
2023-07-28T19:07:13.710Z,100796.78
2023-07-28T19:12:15.480Z,100783.84
2023-07-28T19:17:18.129Z,100780.41
2023-07-28T19:22:20.068Z,100784.09
2023-07-28T19:27:21.774Z,100799.75
2023-07-28T19:32:23.681Z,100799.59
2023-07-28T19:37:42.993Z,100800.31
2023-07-28T19:42:46.227Z,100809.63
2023-07-28T19:47:50.737Z,100812.53
2023-07-28T19:52:52.440Z,100812.44
2023-07-28T19:58:02.504Z,100812.25
2023-07-28T20:03:04.533Z,100804.44
2023-07-28T20:08:06.415Z,100813.00
2023-07-28T20:13:08.213Z,100827.34
2023-07-28T20:18:10.707Z,100829.75
2023-07-28T20:23:12.524Z,100828.59
2023-07-28T20:28:14.363Z,100837.50
2023-07-28T20:33:18.447Z,100839.25
2023-07-28T20:38:22.527Z,100832.66
2023-07-28T20:43:29.152Z,100835.38
2023-07-28T20:48:31.368Z,100829.34
2023-07-28T20:53:36.263Z,100837.56
2023-07-28T20:58:40.670Z,100825.00
2023-07-28T21:03:47.512Z,100828.44
2023-07-28T21:08:51.782Z,100830.25
2023-07-28T21:13:55.865Z,100840.78
2023-07-28T21:18:57.630Z,100829.34
2023-07-28T21:23:59.644Z,100822.28
2023-07-28T21:29:06.239Z,100814.13
2023-07-28T21:34:10.837Z,100817.81
2023-07-28T21:39:15.826Z,100815.34
2023-07-28T21:44:17.611Z,100800.59
2023-07-28T21:49:21.346Z,100798.88
2023-07-28T21:54:23.821Z,100803.38
2023-07-28T21:59:28.055Z,100800.00
2023-07-28T22:04:29.843Z,100797.69
2023-07-28T22:09:31.611Z,100799.72
2023-07-28T22:14:35.760Z,100789.34
2023-07-28T22:19:37.506Z,100793.28
2023-07-28T22:24:39.260Z,100786.47
2023-07-28T22:29:43.382Z,100776.56
2023-07-28T22:34:45.169Z,100794.88
2023-07-28T22:39:46.907Z,100788.97
2023-07-28T22:44:48.692Z,100791.19
2023-07-28T22:49:54.948Z,100783.91
2023-07-28T22:55:13.912Z,100789.31
2023-07-28T23:00:24.191Z,100782.88
2023-07-28T23:05:28.461Z,100780.41
2023-07-28T23:10:30.390Z,100758.47
2023-07-28T23:15:34.460Z,100769.53
2023-07-28T23:20:38.656Z,100770.03
2023-07-28T23:25:40.490Z,100764.03
2023-07-28T23:30:42.264Z,100765.56
2023-07-28T23:35:44.074Z,100754.59
2023-07-28T23:40:48.833Z,100753.50
2023-07-28T23:45:54.541Z,100758.34
2023-07-28T23:50:57.317Z,100748.00
2023-07-28T23:56:01.385Z,100739.34
